createdAt,value
2019-01-08T00:00:18.699Z,430.53
2019-01-08T00:01:18.688Z,430.83
2019-01-08T00:02:18.685Z,431.31
2019-01-08T00:03:18.680Z,430.26
2019-01-08T00:04:18.648Z,430.06
2019-01-08T00:05:18.646Z,430.09
2019-01-08T00:06:18.654Z,430.60
2019-01-08T00:07:18.630Z,430.50
2019-01-08T00:08:18.618Z,431.15
2019-01-08T00:09:18.628Z,431.15
2019-01-08T00:10:18.586Z,430.92
2019-01-08T00:11:18.582Z,430.49
2019-01-08T00:12:18.591Z,430.95
2019-01-08T00:13:18.562Z,430.41
2019-01-08T00:14:18.553Z,430.11
2019-01-08T00:15:18.595Z,431.28
2019-01-08T00:16:18.530Z,430.66
2019-01-08T00:17:18.517Z,431.00
2019-01-08T00:18:18.520Z,431.31
2019-01-08T00:19:18.498Z,430.20
2019-01-08T00:20:18.491Z,430.44
2019-01-08T00:21:18.511Z,431.16
2019-01-08T00:22:18.468Z,431.07
2019-01-08T00:23:18.453Z,430.32
2019-01-08T00:24:18.448Z,429.84
2019-01-08T00:25:18.445Z,430.54
2019-01-08T00:26:18.421Z,430.77
2019-01-08T00:27:18.438Z,430.91
2019-01-08T00:28:18.401Z,430.55
2019-01-08T00:29:18.390Z,430.11
2019-01-08T00:30:18.392Z,430.20
2019-01-08T00:31:18.383Z,430.40
2019-01-08T00:32:18.360Z,430.62
2019-01-08T00:33:18.352Z,430.05
2019-01-08T00:34:18.338Z,430.60
2019-01-08T00:35:18.331Z,430.59
2019-01-08T00:36:18.315Z,430.31
2019-01-08T00:37:18.335Z,431.79
2019-01-08T00:38:18.317Z,430.87
2019-01-08T00:39:18.288Z,430.43
2019-01-08T00:40:18.275Z,430.78
2019-01-08T00:41:18.267Z,431.34
2019-01-08T00:42:18.260Z,430.27
2019-01-08T00:43:18.254Z,430.43
2019-01-08T00:44:18.227Z,430.79
2019-01-08T00:45:18.224Z,430.22
2019-01-08T00:46:18.212Z,429.88
2019-01-08T00:47:18.211Z,431.10
2019-01-08T00:48:18.191Z,430.70
2019-01-08T00:49:18.179Z,430.05
2019-01-08T00:50:18.178Z,431.38
2019-01-08T00:51:18.196Z,430.31
2019-01-08T00:52:18.143Z,431.83
2019-01-08T00:53:18.217Z,430.76
2019-01-08T00:54:18.133Z,430.21
2019-01-08T00:55:18.124Z,430.72
2019-01-08T00:56:18.109Z,430.00
2019-01-08T00:57:18.096Z,430.53
2019-01-08T00:58:18.113Z,430.72
2019-01-08T00:59:18.082Z,430.52
2019-01-08T01:00:18.078Z,430.56
2019-01-08T01:01:18.057Z,430.93
2019-01-08T01:02:18.092Z,430.90
2019-01-08T01:03:18.033Z,429.98
2019-01-08T01:04:18.108Z,431.11
2019-01-08T01:05:18.007Z,430.87
2019-01-08T01:06:18.007Z,430.06
2019-01-08T01:07:18.011Z,430.86
2019-01-08T01:08:18.009Z,430.62
2019-01-08T01:09:17.977Z,430.28
2019-01-08T01:10:17.966Z,430.51
2019-01-08T01:11:17.968Z,431.46
2019-01-08T01:12:17.945Z,430.59
2019-01-08T01:13:17.949Z,430.38
2019-01-08T01:14:17.923Z,429.72
2019-01-08T01:15:17.920Z,430.40
2019-01-08T01:16:17.927Z,430.71
2019-01-08T01:17:17.887Z,431.15
2019-01-08T01:18:17.886Z,430.27
2019-01-08T01:19:17.880Z,429.97
2019-01-08T01:20:17.863Z,430.56
2019-01-08T01:21:17.849Z,430.51
2019-01-08T01:22:17.838Z,431.34
2019-01-08T01:23:17.823Z,430.60
2019-01-08T01:24:17.815Z,431.04
2019-01-08T01:25:17.820Z,430.63
2019-01-08T01:26:17.796Z,430.05
2019-01-08T01:27:17.793Z,430.19
2019-01-08T01:28:17.782Z,430.55
2019-01-08T01:29:17.764Z,430.27
2019-01-08T01:30:17.755Z,430.67
2019-01-08T01:31:17.775Z,430.46
2019-01-08T01:32:17.728Z,431.00
2019-01-08T01:33:17.724Z,430.05
2019-01-08T01:34:17.736Z,429.80
2019-01-08T01:35:17.716Z,430.17
2019-01-08T01:36:17.697Z,430.18
2019-01-08T01:37:17.680Z,430.51
2019-01-08T01:38:17.671Z,430.17
2019-01-08T01:39:17.741Z,430.06
2019-01-08T01:40:17.648Z,429.89
2019-01-08T01:41:17.643Z,431.06
2019-01-08T01:42:17.649Z,430.99
2019-01-08T01:43:17.623Z,430.75
2019-01-08T01:44:17.626Z,430.43
2019-01-08T01:45:17.591Z,430.70
2019-01-08T01:46:17.593Z,430.58
2019-01-08T01:47:17.587Z,429.78
2019-01-08T01:48:17.609Z,430.73
2019-01-08T01:49:17.555Z,430.73
2019-01-08T01:50:17.544Z,430.14
2019-01-08T01:51:17.531Z,430.97
2019-01-08T01:52:17.524Z,430.17
2019-01-08T01:53:17.525Z,430.96
2019-01-08T01:54:17.520Z,431.07
2019-01-08T01:55:17.489Z,431.15
2019-01-08T01:56:17.485Z,430.92
2019-01-08T01:57:17.479Z,430.60
2019-01-08T01:58:17.472Z,430.16
2019-01-08T01:59:17.448Z,429.95
2019-01-08T02:00:17.439Z,430.30
2019-01-08T02:01:17.444Z,431.24
2019-01-08T02:02:17.418Z,430.67
2019-01-08T02:03:17.406Z,430.67
2019-01-08T02:04:17.393Z,430.52
2019-01-08T02:05:17.382Z,430.14
2019-01-08T02:06:17.371Z,430.32
2019-01-08T02:07:17.357Z,429.93
2019-01-08T02:08:17.366Z,430.43
2019-01-08T02:09:17.357Z,430.47
2019-01-08T02:10:17.338Z,429.61
2019-01-08T02:11:17.343Z,430.70
2019-01-08T02:12:17.349Z,431.29
2019-01-08T02:13:17.305Z,430.56
2019-01-08T02:14:17.286Z,430.57
2019-01-08T02:15:17.284Z,430.81
2019-01-08T02:16:17.266Z,430.78
2019-01-08T02:17:17.333Z,429.57
2019-01-08T02:18:17.257Z,430.57
2019-01-08T02:19:17.242Z,430.28
2019-01-08T02:20:17.228Z,430.81
2019-01-08T02:21:17.223Z,430.66
2019-01-08T02:22:17.214Z,431.04
2019-01-08T02:23:17.209Z,430.94
2019-01-08T02:24:17.182Z,430.76
2019-01-08T02:25:17.173Z,430.64
2019-01-08T02:26:17.174Z,429.90
2019-01-08T02:27:17.162Z,430.70
2019-01-08T02:28:17.140Z,430.37
2019-01-08T02:29:17.133Z,430.47
2019-01-08T02:30:17.120Z,430.56
2019-01-08T02:31:17.106Z,430.17
2019-01-08T02:32:17.102Z,431.04
2019-01-08T02:33:17.093Z,429.77
2019-01-08T02:34:17.104Z,430.79
2019-01-08T02:35:17.066Z,429.78
2019-01-08T02:36:17.057Z,431.18
2019-01-08T02:37:17.045Z,430.26
2019-01-08T02:38:17.047Z,430.55
2019-01-08T02:39:17.030Z,430.15
2019-01-08T02:40:17.049Z,429.30
2019-01-08T02:41:17.090Z,430.27
2019-01-08T02:42:17.001Z,430.48
2019-01-08T02:43:17.003Z,430.70
2019-01-08T02:44:17.085Z,430.10
2019-01-08T02:45:16.966Z,429.76
2019-01-08T02:46:17.021Z,430.74
2019-01-08T02:47:16.963Z,429.53
2019-01-08T02:48:16.937Z,430.90
2019-01-08T02:49:16.923Z,430.30
2019-01-08T02:50:16.920Z,430.77
2019-01-08T02:51:16.905Z,430.53
2019-01-08T02:52:16.914Z,430.93
2019-01-08T02:53:16.879Z,429.67
2019-01-08T02:54:16.881Z,430.13
2019-01-08T02:55:16.879Z,430.18
2019-01-08T02:56:16.849Z,429.83
2019-01-08T02:57:16.841Z,430.39
2019-01-08T02:58:16.832Z,429.65
2019-01-08T02:59:24.891Z,429.83
2019-01-08T03:00:17.815Z,430.93
2019-01-08T03:01:16.803Z,430.85
2019-01-08T03:02:16.802Z,430.42
2019-01-08T03:03:16.786Z,431.03
2019-01-08T03:04:16.788Z,430.46
2019-01-08T03:05:16.757Z,430.60
2019-01-08T03:06:16.746Z,430.23
2019-01-08T03:07:16.749Z,431.30
2019-01-08T03:08:16.725Z,430.50
2019-01-08T03:09:16.715Z,430.37
2019-01-08T03:10:16.718Z,430.42
2019-01-08T03:11:16.714Z,431.05
2019-01-08T03:12:16.687Z,430.81
2019-01-08T03:13:16.680Z,430.05
2019-01-08T03:14:16.657Z,430.73
2019-01-08T03:15:16.691Z,430.03
2019-01-08T03:16:16.650Z,430.81
2019-01-08T03:17:16.631Z,430.69
2019-01-08T03:18:16.670Z,430.31
2019-01-08T03:19:16.643Z,430.42
2019-01-08T03:20:16.629Z,430.88
2019-01-08T03:21:16.622Z,430.52
2019-01-08T03:22:16.593Z,430.38
2019-01-08T03:23:16.567Z,429.83
2019-01-08T03:24:16.551Z,432.00
2019-01-08T03:25:16.548Z,430.82
2019-01-08T03:26:16.540Z,430.97
2019-01-08T03:27:16.528Z,429.43
2019-01-08T03:28:16.520Z,430.62
2019-01-08T03:29:16.507Z,430.64
2019-01-08T03:30:16.496Z,429.21
2019-01-08T03:31:16.488Z,430.58
2019-01-08T03:32:16.479Z,430.86
2019-01-08T03:33:16.462Z,430.88
2019-01-08T03:34:16.458Z,430.77
2019-01-08T03:35:16.438Z,431.40
2019-01-08T03:36:16.443Z,431.20
2019-01-08T03:37:16.422Z,430.60
2019-01-08T03:38:16.419Z,430.78
2019-01-08T03:39:16.397Z,430.82
2019-01-08T03:40:16.400Z,431.13
2019-01-08T03:41:16.375Z,430.63
2019-01-08T03:42:16.382Z,430.37
2019-01-08T03:43:16.357Z,430.43
2019-01-08T03:44:16.345Z,430.83
2019-01-08T03:45:16.349Z,431.40
2019-01-08T03:46:16.325Z,431.67
2019-01-08T03:47:16.328Z,430.52
2019-01-08T03:48:16.312Z,429.84
2019-01-08T03:49:16.302Z,430.77
2019-01-08T03:50:16.300Z,430.75
2019-01-08T03:51:16.286Z,431.16
2019-01-08T03:52:16.266Z,431.52
2019-01-08T03:53:16.254Z,430.22
2019-01-08T03:54:16.257Z,430.68
2019-01-08T03:55:16.249Z,431.28
2019-01-08T03:56:16.224Z,431.41
2019-01-08T03:57:16.229Z,431.54
2019-01-08T03:58:16.207Z,430.47
2019-01-08T03:59:16.186Z,430.60
2019-01-08T04:00:16.180Z,430.38
2019-01-08T04:01:16.176Z,431.08
2019-01-08T04:02:16.160Z,430.88
2019-01-08T04:03:16.151Z,430.39
2019-01-08T04:04:16.137Z,430.96
2019-01-08T04:05:16.130Z,430.94
2019-01-08T04:06:16.118Z,430.33
2019-01-08T04:07:16.108Z,430.64
2019-01-08T04:08:16.103Z,430.67
2019-01-08T04:09:16.087Z,430.35
2019-01-08T04:10:16.081Z,431.67
2019-01-08T04:11:16.066Z,430.42
2019-01-08T04:12:16.055Z,430.58
2019-01-08T04:13:16.054Z,430.84
2019-01-08T04:14:16.066Z,430.96
2019-01-08T04:15:16.026Z,430.75
2019-01-08T04:16:16.018Z,430.85
2019-01-08T04:17:16.013Z,430.43
2019-01-08T04:18:15.995Z,431.21
2019-01-08T04:19:15.990Z,430.26
2019-01-08T04:20:15.978Z,430.85
2019-01-08T04:21:15.957Z,431.67
2019-01-08T04:22:15.955Z,431.30
2019-01-08T04:23:15.943Z,430.49
2019-01-08T04:24:15.933Z,431.17
2019-01-08T04:25:15.927Z,430.35
2019-01-08T04:26:15.905Z,431.79
2019-01-08T04:27:16.019Z,431.63
2019-01-08T04:28:15.949Z,431.14
2019-01-08T04:29:15.875Z,430.87
2019-01-08T04:30:15.878Z,430.65
2019-01-08T04:31:15.868Z,430.78
2019-01-08T04:32:15.845Z,430.43
2019-01-08T04:33:15.835Z,430.40
2019-01-08T04:34:15.830Z,430.60
2019-01-08T04:35:15.822Z,431.14
2019-01-08T04:36:15.815Z,431.00
2019-01-08T04:37:15.809Z,430.66
2019-01-08T04:38:15.784Z,430.89
2019-01-08T04:39:15.776Z,431.03
2019-01-08T04:40:15.790Z,431.21
2019-01-08T04:41:15.753Z,430.86
2019-01-08T04:42:15.757Z,431.21
2019-01-08T04:43:15.734Z,431.12
2019-01-08T04:44:15.716Z,431.09
2019-01-08T04:45:15.708Z,431.93
2019-01-08T04:46:15.715Z,431.60
2019-01-08T04:47:15.696Z,430.96
2019-01-08T04:48:15.718Z,430.32
2019-01-08T04:49:15.687Z,431.06
2019-01-08T04:50:15.664Z,431.20
2019-01-08T04:51:15.662Z,431.44
2019-01-08T04:52:15.677Z,431.15
2019-01-08T04:53:15.631Z,431.92
2019-01-08T04:54:15.623Z,431.20
2019-01-08T04:55:15.618Z,431.21
2019-01-08T04:56:15.596Z,430.86
2019-01-08T04:57:15.588Z,430.00
2019-01-08T04:58:15.579Z,431.65
2019-01-08T04:59:15.558Z,431.10
2019-01-08T05:00:15.558Z,430.69
2019-01-08T05:01:15.543Z,431.54
2019-01-08T05:02:15.530Z,430.74
2019-01-08T05:03:15.518Z,431.62
2019-01-08T05:04:15.517Z,431.12
2019-01-08T05:05:15.502Z,431.51
2019-01-08T05:06:15.486Z,431.64
2019-01-08T05:07:15.489Z,430.68
2019-01-08T05:08:15.463Z,430.51
2019-01-08T05:09:15.478Z,431.70
2019-01-08T05:10:15.452Z,431.43
2019-01-08T05:11:15.472Z,431.99
2019-01-08T05:12:15.428Z,430.86
2019-01-08T05:13:15.427Z,431.95
2019-01-08T05:14:15.405Z,430.37
2019-01-08T05:15:15.401Z,431.45
2019-01-08T05:16:15.387Z,431.16
2019-01-08T05:17:15.413Z,430.74
2019-01-08T05:18:15.383Z,431.99
2019-01-08T05:19:15.363Z,431.58
2019-01-08T05:20:15.339Z,431.71
2019-01-08T05:21:15.332Z,431.55
2019-01-08T05:22:15.323Z,431.33
2019-01-08T05:23:15.321Z,431.18
2019-01-08T05:24:15.310Z,430.33
2019-01-08T05:25:15.293Z,431.39
2019-01-08T05:26:15.277Z,431.32
2019-01-08T05:27:15.284Z,431.19
2019-01-08T05:28:15.259Z,430.35
2019-01-08T05:29:15.258Z,430.65
2019-01-08T05:30:15.249Z,430.26
2019-01-08T05:31:15.238Z,431.37
2019-01-08T05:32:15.215Z,430.44
2019-01-08T05:33:15.212Z,430.62
2019-01-08T05:34:15.195Z,430.20
2019-01-08T05:35:15.180Z,429.87
2019-01-08T05:36:15.185Z,429.59
2019-01-08T05:37:15.164Z,429.51
2019-01-08T05:38:15.157Z,430.47
2019-01-08T05:39:15.146Z,430.39
2019-01-08T05:40:15.131Z,430.42
2019-01-08T05:41:15.745Z,430.18
2019-01-08T05:42:15.124Z,430.23
2019-01-08T05:43:15.150Z,429.72
2019-01-08T05:44:15.096Z,429.34
2019-01-08T05:45:15.155Z,430.32
2019-01-08T05:46:15.079Z,430.17
2019-01-08T05:47:16.468Z,429.68
2019-01-08T05:48:15.052Z,429.82
2019-01-08T05:49:15.039Z,428.53
2019-01-08T05:50:15.030Z,430.31
2019-01-08T05:51:15.018Z,428.85
2019-01-08T05:52:15.006Z,429.59
2019-01-08T05:53:15.003Z,429.53
2019-01-08T05:54:14.988Z,429.83
2019-01-08T05:55:14.976Z,430.35
2019-01-08T05:56:14.990Z,429.30
2019-01-08T05:57:14.952Z,429.47
2019-01-08T05:58:14.947Z,429.75
2019-01-08T05:59:14.943Z,428.85
2019-01-08T06:00:16.554Z,428.13
2019-01-08T06:01:14.934Z,429.21
2019-01-08T06:02:14.923Z,429.82
2019-01-08T06:03:14.893Z,430.23
2019-01-08T06:04:14.892Z,429.18
2019-01-08T06:05:14.882Z,428.82
2019-01-08T06:06:14.857Z,429.63
2019-01-08T06:07:14.847Z,429.18
2019-01-08T06:08:14.852Z,428.17
2019-01-08T06:09:14.845Z,428.94
2019-01-08T06:10:14.826Z,429.11
2019-01-08T06:11:14.818Z,428.21
2019-01-08T06:12:14.795Z,428.95
2019-01-08T06:13:14.784Z,428.98
2019-01-08T06:14:14.775Z,428.41
2019-01-08T06:15:14.791Z,429.49
2019-01-08T06:16:14.757Z,429.37
2019-01-08T06:17:14.763Z,428.81
2019-01-08T06:18:14.774Z,429.29
2019-01-08T06:19:14.722Z,428.46
2019-01-08T06:20:14.709Z,428.17
2019-01-08T06:21:14.707Z,428.76
2019-01-08T06:22:14.697Z,429.49
2019-01-08T06:23:14.687Z,429.57
2019-01-08T06:24:14.677Z,428.75
2019-01-08T06:25:14.675Z,429.30
2019-01-08T06:26:14.648Z,428.97
2019-01-08T06:27:14.649Z,429.14
2019-01-08T06:28:14.635Z,430.17
2019-01-08T06:29:14.620Z,428.10
2019-01-08T06:30:14.606Z,428.81
2019-01-08T06:31:14.595Z,428.36
2019-01-08T06:32:14.596Z,429.98
2019-01-08T06:33:14.586Z,429.53
2019-01-08T06:34:14.572Z,429.11
2019-01-08T06:35:14.560Z,429.15
2019-01-08T06:36:14.553Z,428.56
2019-01-08T06:37:14.541Z,429.75
2019-01-08T06:38:15.389Z,427.69
2019-01-08T06:39:14.514Z,428.91
2019-01-08T06:40:14.499Z,429.30
2019-01-08T06:41:14.487Z,429.23
2019-01-08T06:42:14.480Z,429.18
2019-01-08T06:43:14.477Z,429.41
2019-01-08T06:44:14.471Z,429.79
2019-01-08T06:45:14.455Z,430.20
2019-01-08T06:46:14.436Z,428.59
2019-01-08T06:47:14.426Z,428.98
2019-01-08T06:48:14.418Z,429.61
2019-01-08T06:49:14.408Z,428.17
2019-01-08T06:50:14.403Z,429.01
2019-01-08T06:51:14.390Z,428.50
2019-01-08T06:52:14.376Z,428.03
2019-01-08T06:53:14.363Z,429.54
2019-01-08T06:54:14.358Z,429.25
2019-01-08T06:55:14.349Z,429.22
2019-01-08T06:56:14.688Z,429.25
2019-01-08T06:57:14.330Z,429.49
2019-01-08T06:58:14.313Z,429.93
2019-01-08T06:59:14.302Z,429.84
2019-01-08T07:00:14.299Z,428.65
2019-01-08T07:01:14.277Z,428.08
2019-01-08T07:02:14.270Z,429.40
2019-01-08T07:03:14.274Z,428.96
2019-01-08T07:04:14.251Z,429.10
2019-01-08T07:05:14.245Z,429.02
2019-01-08T07:06:14.231Z,430.00
2019-01-08T07:07:14.215Z,429.34
2019-01-08T07:08:14.210Z,429.93
2019-01-08T07:09:14.193Z,429.76
2019-01-08T07:10:14.206Z,428.75
2019-01-08T07:11:14.176Z,429.76
2019-01-08T07:12:14.179Z,429.64
2019-01-08T07:13:14.171Z,430.14
2019-01-08T07:14:14.159Z,429.84
2019-01-08T07:15:14.132Z,429.48
2019-01-08T07:16:14.135Z,428.67
2019-01-08T07:17:14.124Z,429.74
2019-01-08T07:18:14.097Z,430.17
2019-01-08T07:19:14.099Z,428.57
2019-01-08T07:20:14.094Z,429.87
2019-01-08T07:21:14.070Z,430.01
2019-01-08T07:22:14.060Z,430.15
2019-01-08T07:23:14.051Z,428.96
2019-01-08T07:24:14.038Z,429.71
2019-01-08T07:25:14.036Z,428.32
2019-01-08T07:26:14.037Z,430.39
2019-01-08T07:27:16.513Z,429.39
2019-01-08T07:28:14.001Z,429.39
2019-01-08T07:29:13.995Z,428.92
2019-01-08T07:30:13.972Z,429.75
2019-01-08T07:31:13.967Z,429.48
2019-01-08T07:32:13.992Z,429.43
2019-01-08T07:33:13.942Z,430.62
2019-01-08T07:34:13.933Z,430.36
2019-01-08T07:35:13.928Z,429.64
2019-01-08T07:36:13.917Z,430.07
2019-01-08T07:37:13.915Z,430.09
2019-01-08T07:38:13.899Z,430.25
2019-01-08T07:39:13.916Z,429.96
2019-01-08T07:40:13.873Z,429.88
2019-01-08T07:41:13.861Z,430.46
2019-01-08T07:42:13.852Z,430.03
2019-01-08T07:43:13.854Z,429.47
2019-01-08T07:44:13.846Z,429.48
2019-01-08T07:45:13.826Z,429.65
2019-01-08T07:46:13.807Z,428.87
2019-01-08T07:47:13.799Z,430.18
2019-01-08T07:48:13.789Z,430.58
2019-01-08T07:49:13.783Z,430.37
2019-01-08T07:50:13.767Z,428.81
2019-01-08T07:51:13.763Z,430.68
2019-01-08T07:52:13.786Z,432.30
2019-01-08T07:53:13.736Z,430.42
2019-01-08T07:54:13.731Z,430.46
2019-01-08T07:55:13.719Z,430.81
2019-01-08T07:56:13.705Z,431.24
2019-01-08T07:57:13.698Z,430.81
2019-01-08T07:58:13.682Z,430.99
2019-01-08T07:59:13.669Z,430.96
2019-01-08T08:00:13.666Z,430.53
2019-01-08T08:01:13.656Z,430.81
2019-01-08T08:02:13.645Z,431.03
2019-01-08T08:03:13.646Z,431.94
2019-01-08T08:04:13.631Z,430.62
2019-01-08T08:05:13.613Z,430.33
2019-01-08T08:06:13.603Z,430.92
2019-01-08T08:07:13.594Z,431.73
2019-01-08T08:08:13.585Z,431.03
2019-01-08T08:09:13.566Z,434.37
2019-01-08T08:10:13.565Z,433.40
2019-01-08T08:11:13.542Z,430.99
2019-01-08T08:12:13.544Z,431.26
2019-01-08T08:13:13.533Z,431.00
2019-01-08T08:14:13.519Z,431.11
2019-01-08T08:15:13.510Z,431.67
2019-01-08T08:16:13.500Z,432.80
2019-01-08T08:17:13.486Z,430.28
2019-01-08T08:18:13.476Z,431.57
2019-01-08T08:19:13.458Z,431.27
2019-01-08T08:20:13.520Z,431.53
2019-01-08T08:21:13.454Z,431.54
2019-01-08T08:22:13.451Z,432.54
2019-01-08T08:23:14.389Z,430.33
2019-01-08T08:24:13.413Z,431.50
2019-01-08T08:25:13.438Z,430.26
2019-01-08T08:26:13.399Z,432.22
2019-01-08T08:27:13.385Z,431.15
2019-01-08T08:28:13.373Z,430.00
2019-01-08T08:29:13.366Z,432.12
2019-01-08T08:30:13.357Z,430.85
2019-01-08T08:31:13.359Z,431.25
2019-01-08T08:32:13.325Z,431.66
2019-01-08T08:33:13.326Z,430.84
2019-01-08T08:34:13.298Z,430.91
2019-01-08T08:35:13.298Z,431.80
2019-01-08T08:36:13.292Z,431.05
2019-01-08T08:37:13.270Z,431.50
2019-01-08T08:38:13.271Z,432.83
2019-01-08T08:39:13.257Z,432.36
2019-01-08T08:40:13.246Z,431.73
2019-01-08T08:41:13.243Z,431.77
2019-01-08T08:42:13.248Z,430.77
2019-01-08T08:43:13.210Z,431.58
2019-01-08T08:44:13.196Z,430.90
2019-01-08T08:45:13.865Z,431.62
2019-01-08T08:46:13.181Z,431.30
2019-01-08T08:47:13.163Z,431.43
2019-01-08T08:48:13.166Z,431.60
2019-01-08T08:49:13.147Z,432.09
2019-01-08T08:50:13.165Z,431.78
2019-01-08T08:51:13.159Z,432.84
2019-01-08T08:52:13.111Z,431.77
2019-01-08T08:53:13.118Z,431.63
2019-01-08T08:54:13.106Z,431.42
2019-01-08T08:55:13.081Z,431.46
2019-01-08T08:56:13.069Z,432.04
2019-01-08T08:57:13.061Z,431.15
2019-01-08T08:58:13.055Z,432.56
2019-01-08T08:59:13.044Z,431.59
2019-01-08T09:00:13.073Z,431.71
2019-01-08T09:01:13.040Z,432.30
2019-01-08T09:02:13.125Z,432.64
2019-01-08T09:03:12.997Z,432.01
2019-01-08T09:04:12.996Z,431.38
2019-01-08T09:05:12.971Z,431.94
2019-01-08T09:06:12.971Z,432.08
2019-01-08T09:07:12.954Z,431.80
2019-01-08T09:08:12.948Z,430.99
2019-01-08T09:09:12.936Z,432.04
2019-01-08T09:10:12.924Z,431.43
2019-01-08T09:11:12.927Z,431.83
2019-01-08T09:12:12.902Z,432.12
2019-01-08T09:13:12.892Z,431.00
2019-01-08T09:14:12.896Z,432.05
2019-01-08T09:15:12.882Z,431.52
2019-01-08T09:16:12.857Z,432.49
2019-01-08T09:17:12.908Z,432.26
2019-01-08T09:18:12.849Z,431.19
2019-01-08T09:19:12.834Z,431.96
2019-01-08T09:20:12.813Z,431.56
2019-01-08T09:21:12.819Z,431.29
2019-01-08T09:22:12.855Z,432.06
2019-01-08T09:23:12.794Z,430.66
2019-01-08T09:24:12.785Z,431.67
2019-01-08T09:25:12.771Z,431.65
2019-01-08T09:26:12.759Z,431.10
2019-01-08T09:27:12.747Z,431.06
2019-01-08T09:28:12.744Z,431.36
2019-01-08T09:29:12.800Z,432.00
2019-01-08T09:30:12.893Z,431.90
2019-01-08T09:31:15.553Z,431.61
2019-01-08T09:32:12.707Z,431.80
2019-01-08T09:33:12.688Z,431.79
2019-01-08T09:34:12.682Z,431.83
2019-01-08T09:35:12.667Z,431.85
2019-01-08T09:36:12.658Z,432.20
2019-01-08T09:37:12.664Z,431.31
2019-01-08T09:38:12.635Z,431.98
2019-01-08T09:39:12.650Z,431.15
2019-01-08T09:40:12.613Z,431.93
2019-01-08T09:41:12.629Z,432.32
2019-01-08T09:42:12.596Z,431.81
2019-01-08T09:43:12.613Z,431.99
2019-01-08T09:44:12.623Z,432.28
2019-01-08T09:45:12.600Z,432.71
2019-01-08T09:46:12.629Z,432.11
2019-01-08T09:47:12.611Z,432.39
2019-01-08T09:48:12.617Z,434.08
2019-01-08T09:49:12.648Z,432.93
2019-01-08T09:50:12.534Z,433.49
2019-01-08T09:51:12.511Z,433.36
2019-01-08T09:52:12.531Z,433.15
2019-01-08T09:53:12.487Z,433.80
2019-01-08T09:54:12.483Z,433.20
2019-01-08T09:55:12.477Z,433.45
2019-01-08T09:56:12.465Z,433.13
2019-01-08T09:57:12.532Z,433.21
2019-01-08T09:58:12.660Z,432.99
2019-01-08T09:59:12.426Z,431.86
2019-01-08T10:00:12.616Z,432.31
2019-01-08T10:01:12.489Z,431.48
2019-01-08T10:02:12.426Z,432.88
2019-01-08T10:03:12.411Z,432.24
2019-01-08T10:04:12.421Z,432.31
2019-01-08T10:05:12.422Z,431.72
2019-01-08T10:06:12.445Z,432.73
2019-01-08T10:07:12.364Z,431.94
2019-01-08T10:08:12.429Z,431.53
2019-01-08T10:09:12.390Z,431.36
2019-01-08T10:10:12.367Z,431.18
2019-01-08T10:11:12.302Z,431.91
2019-01-08T10:12:12.346Z,431.70
2019-01-08T10:13:12.302Z,431.92
2019-01-08T10:14:12.320Z,432.06
2019-01-08T10:15:12.272Z,431.12
2019-01-08T10:16:12.250Z,432.36
2019-01-08T10:17:12.239Z,431.31
2019-01-08T10:18:12.243Z,431.53
2019-01-08T10:19:12.223Z,431.83
2019-01-08T10:20:12.208Z,431.61
2019-01-08T10:21:12.232Z,431.56
2019-01-08T10:22:12.192Z,431.40
2019-01-08T10:23:12.263Z,431.82
2019-01-08T10:24:12.164Z,431.24
2019-01-08T10:25:12.183Z,431.95
2019-01-08T10:26:12.145Z,432.41
2019-01-08T10:27:12.132Z,431.88
2019-01-08T10:28:12.121Z,430.55
2019-01-08T10:29:12.110Z,432.40
2019-01-08T10:30:12.132Z,431.55
2019-01-08T10:31:12.097Z,431.87
2019-01-08T10:32:12.073Z,431.02
2019-01-08T10:33:12.104Z,431.15
2019-01-08T10:34:12.072Z,432.27
2019-01-08T10:35:12.049Z,432.07
2019-01-08T10:36:12.045Z,431.32
2019-01-08T10:37:12.041Z,431.99
2019-01-08T10:38:12.020Z,431.58
2019-01-08T10:39:12.021Z,432.26
2019-01-08T10:40:12.010Z,431.83
2019-01-08T10:41:11.998Z,431.11
2019-01-08T10:42:12.008Z,430.23
2019-01-08T10:43:12.014Z,431.69
2019-01-08T10:44:11.984Z,432.47
2019-01-08T10:45:11.950Z,431.20
2019-01-08T10:46:11.940Z,430.78
2019-01-08T10:47:11.927Z,430.90
2019-01-08T10:48:11.915Z,431.64
2019-01-08T10:49:11.952Z,432.06
2019-01-08T10:50:11.969Z,431.31
2019-01-08T10:51:11.948Z,431.28
2019-01-08T10:52:11.868Z,431.63
2019-01-08T10:53:11.864Z,431.26
2019-01-08T10:54:11.856Z,431.29
2019-01-08T10:55:11.861Z,430.82
2019-01-08T10:56:11.884Z,432.03
2019-01-08T10:57:11.819Z,430.67
2019-01-08T10:58:11.922Z,432.30
2019-01-08T10:59:11.795Z,431.46
2019-01-08T11:00:11.791Z,432.02
2019-01-08T11:01:11.774Z,431.25
2019-01-08T11:02:11.851Z,431.85
2019-01-08T11:03:11.787Z,432.08
2019-01-08T11:04:11.748Z,431.42
2019-01-08T11:05:11.750Z,431.53
2019-01-08T11:06:11.722Z,431.15
2019-01-08T11:07:11.723Z,431.94
2019-01-08T11:08:11.719Z,431.65
2019-01-08T11:09:11.725Z,431.54
2019-01-08T11:10:12.467Z,431.05
2019-01-08T11:11:11.685Z,431.19
2019-01-08T11:12:11.673Z,431.28
2019-01-08T11:13:11.675Z,430.84
2019-01-08T11:14:11.656Z,432.52
2019-01-08T11:15:11.638Z,431.60
2019-01-08T11:16:11.723Z,432.04
2019-01-08T11:17:11.611Z,431.97
2019-01-08T11:18:11.601Z,431.42
2019-01-08T11:19:11.593Z,431.46
2019-01-08T11:20:11.579Z,432.22
2019-01-08T11:21:11.609Z,431.70
2019-01-08T11:22:11.558Z,431.23
2019-01-08T11:23:11.556Z,430.62
2019-01-08T11:24:11.565Z,431.36
2019-01-08T11:25:11.549Z,431.00
2019-01-08T11:26:11.530Z,431.20
2019-01-08T11:27:11.515Z,432.60
2019-01-08T11:28:11.501Z,432.29
2019-01-08T11:29:11.473Z,432.25
2019-01-08T11:30:11.488Z,431.84
2019-01-08T11:31:11.472Z,431.22
2019-01-08T11:32:11.446Z,430.73
2019-01-08T11:33:11.463Z,431.60
2019-01-08T11:34:11.540Z,429.48
2019-01-08T11:35:11.438Z,430.76
2019-01-08T11:36:11.413Z,431.27
2019-01-08T11:37:11.407Z,426.56
2019-01-08T11:38:11.396Z,426.54
2019-01-08T11:39:11.404Z,429.35
2019-01-08T11:40:11.374Z,429.34
2019-01-08T11:41:11.389Z,431.79
2019-01-08T11:42:11.360Z,430.68
2019-01-08T11:43:11.343Z,432.47
2019-01-08T11:44:11.333Z,433.77
2019-01-08T11:45:11.331Z,433.22
2019-01-08T11:46:11.309Z,435.33
2019-01-08T11:47:11.325Z,432.64
2019-01-08T11:48:11.288Z,433.19
2019-01-08T11:49:11.324Z,434.05
2019-01-08T11:50:11.269Z,432.96
2019-01-08T11:51:11.296Z,432.12
2019-01-08T11:52:11.285Z,434.63
2019-01-08T11:53:11.266Z,433.51
2019-01-08T11:54:11.369Z,434.20
2019-01-08T11:55:11.221Z,434.11
2019-01-08T11:56:11.195Z,433.02
2019-01-08T11:57:11.201Z,433.21
2019-01-08T11:58:11.193Z,434.58
2019-01-08T11:59:11.161Z,433.59
2019-01-08T12:00:11.162Z,434.17
2019-01-08T12:01:11.158Z,434.00
2019-01-08T12:02:11.175Z,431.35
2019-01-08T12:03:11.206Z,433.23
2019-01-08T12:04:11.150Z,434.22
2019-01-08T12:05:11.118Z,433.39
2019-01-08T12:06:11.124Z,434.51
2019-01-08T12:07:11.178Z,433.81
2019-01-08T12:08:11.071Z,429.92
2019-01-08T12:09:11.062Z,434.08
2019-01-08T12:10:11.070Z,433.50
2019-01-08T12:11:11.181Z,433.98
2019-01-08T12:12:11.169Z,434.48
2019-01-08T12:13:11.054Z,435.10
2019-01-08T12:14:11.017Z,434.98
2019-01-08T12:15:11.002Z,434.67
2019-01-08T12:16:10.992Z,432.47
2019-01-08T12:17:10.981Z,436.38
2019-01-08T12:18:10.963Z,434.88
2019-01-08T12:19:10.960Z,433.61
2019-01-08T12:20:11.743Z,436.28
2019-01-08T12:21:10.970Z,434.89
2019-01-08T12:22:10.950Z,436.25
2019-01-08T12:23:10.936Z,435.82
2019-01-08T12:24:10.930Z,435.64
2019-01-08T12:25:10.896Z,436.25
2019-01-08T12:26:11.247Z,436.32
2019-01-08T12:27:10.877Z,437.91
2019-01-08T12:28:10.873Z,434.84